Arkabutla, MS

10:31 PM CDT on August 29, 2016 (GMT -0500)
NWCC - RC Pugh Library | | Change Station

Elev 289 ft 34.63 °N, 89.97 °W | Updated 15 seconds ago

Clear
Clear
83.8 °F
Feels Like 88 °F
N
0.9
Wind Variable Wind from South
Gusts 2.5 mph

Today
High -- | Low -- °F
--% Chance of Precip.
Yesterday
High -- | Low -- °F
Precip. -- in
Pressure 30.06 in
Visibility 10.0 miles
Clouds Clear
Heat Index 88 °F
Dew Point 70 °F
Humidity 63%
Rainfall 0.00 in
Snow Depth Not available.
6:31 AM 7:29 PM
Waning Crescent, 5% visible
METAR KUTA 300315Z AUTO 04004KT 10SM CLR 25/23 A3006 RMK AO2 TSNO
Pressure 30.06 in
Visibility 10.0 miles
Clouds Clear
Heat Index 88 °F
Dew Point 70 °F
Humidity 63%
Rainfall 0.00 in
Snow Depth Not available.
6:31 AM 7:29 PM
Waning Crescent, 5% visible
METAR KUTA 300315Z AUTO 04004KT 10SM CLR 25/23 A3006 RMK AO2 TSNO

10-Day Weather Forecast

Almanac

Astronomy

Aug. 29, 2016 Rise Set
Actual Time
Civil Twilight
Nautical Twilight
Astronomical Twilight
Moon
Length of Visible Light
Length of Day
Tomorrow will be .
, % of the Moon is Illuminated

Today's Extremes

State Highs State Lows

Community

WunderPhotos

Upload Photos

1,935,782 photos uploaded!

WunderBlog® & News

Nearby

Air Quality

  Air Quality AQ Index Pollutant
Not available.

Snow Depth

Station Depth Elevation

Earthquake Activity

City Distance Mag. Time & Date
Minimum magnitude displayed is 2.5.

Coastal Water Temperatures

Place Temperature

Stations

Nearby Weather Stations

Station Location Temp. Windchill Dew Point Humidity Wind Precip. Elev Updated Type
                   

Watches & Warnings

There are currently no watches in effect.